Time;durP1;ratioP1;P1;durP2;ratioP2;P2;SDS_P1;SDS_P2;PMS_P1;PMS_P2;Temp;Humidity;BMP_temperature;BMP_pressure;BME280_temperature;BME280_humidity;BME280_pressure;Samples;Min_cycle;Max_cycle;Signal;HPM_P1;HPM_P2
2023/04/30 00:01:01;;;;;;;23.17;13.05;;;6.70;92.20;;;;;;4965973;28;20031;-78
2023/04/30 00:03:27;;;;;;;26.35;13.57;;;6.70;92.30;;;;;;4965319;28;20047;-78
2023/04/30 00:05:53;;;;;;;22.15;12.25;;;6.70;92.40;;;;;;4966647;28;20125;-76
2023/04/30 00:08:19;;;;;;;22.55;12.43;;;6.70;92.40;;;;;;4952954;28;20081;-78
2023/04/30 00:10:45;;;;;;;26.15;13.05;;;6.70;92.40;;;;;;4968173;28;20045;-79
2023/04/30 00:13:12;;;;;;;28.98;12.20;;;6.70;92.50;;;;;;4973175;28;20396;-84
2023/04/30 00:15:39;;;;;;;18.77;12.40;;;6.70;92.70;;;;;;4956867;28;20095;-83
2023/04/30 00:18:06;;;;;;;32.30;15.43;;;6.60;92.80;;;;;;4981870;28;20062;-82
2023/04/30 00:20:33;;;;;;;23.50;13.93;;;6.70;92.90;;;;;;4957714;28;20081;-82
2023/04/30 00:22:59;;;;;;;29.33;14.68;;;6.70;93.00;;;;;;4979332;28;20022;-82
2023/04/30 00:25:25;;;;;;;26.42;13.65;;;6.60;93.10;;;;;;4978933;28;20030;-81
2023/04/30 00:27:51;;;;;;;23.65;13.50;;;6.60;93.20;;;;;;4965707;28;20030;-83
2023/04/30 00:30:17;;;;;;;26.70;14.10;;;6.60;93.30;;;;;;4959279;28;20484;-82
2023/04/30 00:32:44;;;;;;;25.98;12.60;;;6.60;93.40;;;;;;4971277;28;20015;-82
2023/04/30 00:35:33;;;;;;;27.75;15.98;;;6.60;93.60;;;;;;4965910;28;20514;-82
2023/04/30 00:37:59;;;;;;;28.85;15.02;;;6.50;93.80;;;;;;4987567;28;20404;-84
2023/04/30 00:40:25;;;;;;;29.35;15.98;;;6.50;93.90;;;;;;4965516;28;20019;-83
2023/04/30 00:42:54;;;;;;;27.38;15.93;;;6.50;94.00;;;;;;4978030;28;20030;-84
2023/04/30 00:45:21;;;;;;;30.23;14.43;;;6.50;94.20;;;;;;4982057;28;20094;-82
2023/04/30 00:47:47;;;;;;;23.08;15.00;;;6.40;94.30;;;;;;4947889;28;20119;-81
2023/04/30 00:50:15;;;;;;;28.90;15.43;;;6.40;94.50;;;;;;4962562;28;20038;-81
2023/04/30 00:52:41;;;;;;;;;;;6.40;94.60;;;;;;4967356;28;20015;-81
2023/04/30 00:55:08;;;;;;;26.83;15.33;;;6.40;94.30;;;;;;4964465;28;19941;-81
2023/04/30 00:57:35;;;;;;;28.67;15.20;;;6.30;94.80;;;;;;4963504;28;20043;-81
2023/04/30 01:00:01;;;;;;;28.27;15.35;;;6.30;94.80;;;;;;4967683;28;20023;-82
2023/04/30 01:02:29;;;;;;;24.15;14.80;;;6.30;94.90;;;;;;4975080;28;20070;-81
2023/04/30 01:04:56;;;;;;;34.45;15.50;;;6.30;95.00;;;;;;4975730;28;20027;-82
2023/04/30 01:07:23;;;;;;;29.70;15.85;;;6.20;95.20;;;;;;4974533;28;20481;-81
2023/04/30 01:09:49;;;;;;;32.42;16.25;;;6.20;95.30;;;;;;4957951;28;20089;-81
2023/04/30 01:12:24;;;;;;;34.95;17.08;;;6.20;95.40;;;;;;4982907;28;20023;-81
2023/04/30 01:14:53;;;;;;;27.58;15.70;;;6.20;95.60;;;;;;4975774;28;20546;-83
2023/04/30 01:17:35;;;;;;;27.73;16.30;;;6.20;95.70;;;;;;4978653;28;20065;-81
2023/04/30 01:20:03;;;;;;;31.75;17.88;;;6.20;95.90;;;;;;4975095;28;20033;-82
2023/04/30 01:22:38;;;;;;;;;;;6.10;96.00;;;;;;4976695;28;20014;-81
2023/04/30 01:25:31;;;;;;;31.98;16.80;;;6.10;95.70;;;;;;4977616;28;19914;-81
2023/04/30 01:28:06;;;;;;;31.08;16.75;;;6.10;96.00;;;;;;4959276;28;20108;-81
2023/04/30 01:30:33;;;;;;;46.78;18.85;;;6.10;96.30;;;;;;4976722;28;20118;-82
2023/04/30 01:33:00;;;;;;;27.33;15.45;;;6.10;96.50;;;;;;4969764;28;20033;-82
2023/04/30 01:35:35;;;;;;;33.70;16.97;;;6.10;96.60;;;;;;4962495;28;20030;-82
2023/04/30 01:38:27;;;;;;;35.90;18.52;;;6.20;96.60;;;;;;4984402;28;20026;-81
2023/04/30 01:41:01;;;;;;;34.00;17.55;;;6.20;96.60;;;;;;4960212;28;20023;-82
2023/04/30 01:44:03;;;;;;;35.78;19.23;;;6.20;96.90;;;;;;4975852;28;20038;-82
2023/04/30 01:46:29;;;;;;;28.50;16.98;;;6.20;96.80;;;;;;4939352;28;20146;-81
2023/04/30 01:49:12;;;;;;;36.65;16.98;;;6.10;96.80;;;;;;4959413;28;20787;-83
2023/04/30 01:51:42;;;;;;;31.40;16.85;;;6.10;97.00;;;;;;4957713;28;20042;-82
2023/04/30 01:54:34;;;;;;;32.55;18.23;;;6.10;97.10;;;;;;4974301;28;20034;-81
2023/04/30 01:57:06;;;;;;;26.55;16.75;;;6.10;97.30;;;;;;4988519;28;20023;-82
2023/04/30 01:59:35;;;;;;;30.95;18.95;;;6.00;97.40;;;;;;4964553;28;20062;-81
2023/04/30 02:02:02;;;;;;;24.98;17.67;;;6.10;97.50;;;;;;4975775;28;20042;-81
2023/04/30 02:04:28;;;;;;;31.92;18.75;;;6.10;97.60;;;;;;4973863;28;20034;-81
2023/04/30 02:06:53;;;;;;;33.50;18.88;;;6.10;97.60;;;;;;4973880;28;20520;-81
2023/04/30 02:09:22;;;;;;;40.22;20.05;;;6.10;97.70;;;;;;4974904;28;20031;-81
2023/04/30 02:11:48;;;;;;;33.33;19.17;;;6.10;97.90;;;;;;4979990;28;20100;-82
2023/04/30 02:14:14;;;;;;;29.98;17.98;;;6.10;98.00;;;;;;4974631;28;20058;-81
2023/04/30 02:16:40;;;;;;;35.70;18.42;;;6.20;98.00;;;;;;4979861;28;20031;-81
2023/04/30 02:19:07;;;;;;;29.70;18.98;;;6.20;98.10;;;;;;4982397;28;20137;-82
2023/04/30 02:21:33;;;;;;;34.65;19.65;;;6.20;98.20;;;;;;4969140;28;20477;-81
2023/04/30 02:23:59;;;;;;;31.75;19.83;;;6.30;98.30;;;;;;4964280;28;20026;-82
2023/04/30 02:26:25;;;;;;;31.17;19.92;;;6.30;98.40;;;;;;4959939;28;20373;-82
2023/04/30 02:28:51;;;;;;;45.90;23.08;;;6.30;98.70;;;;;;4970098;28;20391;-82
2023/04/30 02:31:18;;;;;;;35.63;22.23;;;6.40;98.50;;;;;;4968444;28;20123;-83
2023/04/30 02:33:44;;;;;;;37.78;22.77;;;6.50;98.80;;;;;;4992583;28;20026;-82
2023/04/30 02:36:10;;;;;;;36.17;22.40;;;6.60;98.50;;;;;;4990831;28;20030;-82
2023/04/30 02:38:36;;;;;;;41.85;22.25;;;6.60;98.50;;;;;;4970557;28;20030;-83
2023/04/30 02:41:02;;;;;;;45.25;23.45;;;6.70;98.40;;;;;;4963036;28;20031;-84
2023/04/30 02:43:28;;;;;;;39.75;21.13;;;6.80;98.40;;;;;;4962687;28;20051;-83
2023/04/30 02:45:54;;;;;;;38.97;21.10;;;6.90;98.30;;;;;;4968604;28;20419;-82
2023/04/30 02:48:20;;;;;;;37.20;22.67;;;7.00;98.20;;;;;;4965140;28;20369;-82
2023/04/30 02:50:46;;;;;;;34.80;21.85;;;7.10;98.10;;;;;;4988145;28;20093;-84
2023/04/30 02:53:11;;;;;;;33.95;21.83;;;7.20;98.00;;;;;;4970316;28;20027;-81
2023/04/30 02:55:37;;;;;;;35.58;21.17;;;7.20;97.90;;;;;;4986750;28;20026;-81
2023/04/30 02:58:03;;;;;;;31.88;20.52;;;7.30;97.80;;;;;;4987867;28;20027;-83
2023/04/30 03:00:29;;;;;;;44.08;21.75;;;7.40;97.80;;;;;;4999547;28;20023;-83
2023/04/30 03:02:55;;;;;;;39.83;22.88;;;7.50;97.70;;;;;;4982538;28;20026;-81
2023/04/30 03:05:22;;;;;;;33.90;22.00;;;7.60;97.50;;;;;;5012985;28;20054;-82
2023/04/30 03:07:47;;;;;;;37.50;20.48;;;7.60;97.30;;;;;;4997552;28;20054;-83
2023/04/30 03:10:13;;;;;;;40.20;20.95;;;7.70;97.10;;;;;;4986949;28;20031;-83
2023/04/30 03:12:39;;;;;;;38.42;22.55;;;7.90;96.90;;;;;;4989776;28;20034;-82
2023/04/30 03:15:06;;;;;;;31.25;20.70;;;7.90;96.80;;;;;;4970782;28;20046;-82
2023/04/30 03:17:32;;;;;;;40.10;20.80;;;8.00;96.50;;;;;;4965549;28;20019;-82
2023/04/30 03:19:58;;;;;;;31.55;20.80;;;8.20;96.20;;;;;;4964508;28;20059;-82
2023/04/30 03:22:25;;;;;;;30.00;20.10;;;8.30;96.00;;;;;;4963547;28;20022;-81
2023/04/30 03:24:51;;;;;;;40.78;20.00;;;8.40;95.80;;;;;;4983386;28;20027;-84
2023/04/30 03:27:17;;;;;;;29.92;19.70;;;8.40;95.30;;;;;;4980261;28;20038;-81
2023/04/30 03:29:43;;;;;;;36.20;19.60;;;8.50;94.80;;;;;;4962029;28;20102;-80
2023/04/30 03:32:09;;;;;;;29.25;18.55;;;8.60;94.60;;;;;;4951114;28;20019;-83
2023/04/30 03:34:34;;;;;;;31.20;18.77;;;8.70;94.20;;;;;;4972316;28;20053;-81
2023/04/30 03:37:00;;;;;;;26.25;19.48;;;8.90;93.60;;;;;;4962225;28;20023;-82
2023/04/30 03:39:26;;;;;;;30.50;19.75;;;8.90;93.10;;;;;;4979478;28;20047;-82
2023/04/30 03:41:52;;;;;;;26.20;18.30;;;9.00;92.20;;;;;;4979910;28;20045;-82
2023/04/30 03:44:18;;;;;;;26.38;18.10;;;9.10;92.10;;;;;;4970008;28;20117;-83
2023/04/30 03:46:44;;;;;;;30.35;19.05;;;9.10;91.60;;;;;;4978296;28;20492;-83
2023/04/30 03:49:10;;;;;;;28.30;17.38;;;9.20;91.50;;;;;;4976903;28;20031;-82
2023/04/30 03:51:40;;;;;;;28.05;18.35;;;9.20;91.30;;;;;;4976573;28;20440;-82
2023/04/30 03:54:06;;;;;;;26.33;19.42;;;9.40;91.20;;;;;;4977119;28;20030;-82
2023/04/30 03:56:33;;;;;;;29.73;19.15;;;9.40;90.90;;;;;;4977167;28;20121;-81
2023/04/30 03:59:00;;;;;;;27.17;16.75;;;9.60;90.60;;;;;;4976523;28;20146;-82
2023/04/30 04:01:26;;;;;;;23.15;18.05;;;9.70;90.20;;;;;;4975914;28;20035;-82
2023/04/30 04:03:53;;;;;;;30.85;16.63;;;9.80;89.70;;;;;;4975237;28;20054;-81
2023/04/30 04:06:19;;;;;;;21.97;15.07;;;9.90;88.50;;;;;;4978973;28;20051;-83
2023/04/30 04:08:45;;;;;;;26.10;15.02;;;10.00;87.60;;;;;;4975892;28;20480;-83
2023/04/30 04:11:11;;;;;;;23.33;16.38;;;10.00;87.10;;;;;;4978618;28;20031;-84
2023/04/30 04:13:37;;;;;;;19.67;14.65;;;10.10;86.70;;;;;;4965533;28;20475;-82
2023/04/30 04:16:03;;;;;;;19.02;14.50;;;10.20;86.30;;;;;;4981050;28;20026;-84
2023/04/30 04:18:29;;;;;;;23.00;14.85;;;10.30;85.30;;;;;;4977674;28;20357;-82
2023/04/30 04:20:55;;;;;;;24.02;14.82;;;10.40;84.80;;;;;;4975958;28;20027;-84
2023/04/30 04:23:22;;;;;;;22.52;14.60;;;10.40;84.40;;;;;;4958683;28;20027;-84
2023/04/30 04:25:51;;;;;;;25.92;18.17;;;10.50;84.20;;;;;;4976478;28;20051;-82
2023/04/30 04:28:17;;;;;;;23.67;17.45;;;10.60;84.40;;;;;;4967108;28;20057;-84
2023/04/30 04:30:43;;;;;;;29.30;17.63;;;10.50;84.50;;;;;;4983341;28;20034;-83
2023/04/30 04:33:10;;;;;;;29.50;18.92;;;10.60;84.80;;;;;;4991488;28;20049;-83
2023/04/30 04:35:36;;;;;;;29.25;18.45;;;10.70;84.80;;;;;;4983939;28;20153;-81
2023/04/30 04:38:03;;;;;;;34.72;19.27;;;10.90;84.50;;;;;;4980658;28;20026;-84
2023/04/30 04:40:29;;;;;;;25.55;19.00;;;11.10;83.80;;;;;;4975042;28;20073;-82
2023/04/30 04:42:55;;;;;;;30.45;19.25;;;11.30;83.30;;;;;;4976305;28;20034;-83
2023/04/30 04:45:21;;;;;;;28.35;18.63;;;11.50;82.40;;;;;;4977998;28;20098;-84
2023/04/30 04:47:47;;;;;;;23.02;17.08;;;11.80;80.70;;;;;;4978298;28;20188;-83
2023/04/30 04:50:13;;;;;;;26.60;17.17;;;11.90;78.70;;;;;;4962673;28;20035;-85
2023/04/30 04:52:39;;;;;;;24.05;19.42;;;11.90;77.20;;;;;;4978391;28;20014;-86
2023/04/30 04:55:06;;;;;;;23.02;18.02;;;11.90;76.90;;;;;;4977901;28;20037;-83
2023/04/30 04:57:32;;;;;;;26.77;20.65;;;12.00;75.80;;;;;;4985284;28;20015;-84
2023/04/30 04:59:58;;;;;;;27.67;17.98;;;12.20;75.90;;;;;;4987582;28;20030;-83
2023/04/30 05:02:24;;;;;;;30.17;18.60;;;12.50;74.30;;;;;;4977724;28;20154;-85
2023/04/30 05:04:50;;;;;;;23.48;17.35;;;12.60;73.40;;;;;;4975368;28;20035;-82
2023/04/30 05:07:17;;;;;;;22.35;17.67;;;12.60;72.10;;;;;;4977720;28;20540;-84
2023/04/30 05:09:44;;;;;;;23.08;18.13;;;12.80;72.20;;;;;;4975046;28;20392;-84
2023/04/30 05:12:10;;;;;;;26.58;18.35;;;13.10;70.80;;;;;;4987203;28;20436;-84
2023/04/30 05:14:36;;;;;;;25.95;18.42;;;13.30;70.80;;;;;;4960781;28;20031;-84
2023/04/30 05:17:02;;;;;;;20.85;16.67;;;13.40;68.90;;;;;;4968039;28;20027;-84
2023/04/30 05:19:28;;;;;;;22.42;16.92;;;13.50;69.20;;;;;;4990268;28;20097;-82
2023/04/30 05:21:54;;;;;;;23.95;17.85;;;13.60;68.40;;;;;;4962911;28;20051;-84
2023/04/30 05:24:20;;;;;;;22.75;17.02;;;13.80;68.30;;;;;;4978067;28;20567;-84
2023/04/30 05:26:45;;;;;;;23.63;17.20;;;13.90;66.10;;;;;;4968603;28;20027;-85
2023/04/30 05:29:12;;;;;;;18.15;15.27;;;13.80;66.70;;;;;;4964393;28;20035;-84
2023/04/30 05:31:37;;;;;;;15.82;14.23;;;14.00;66.10;;;;;;4984122;28;20026;-82
2023/04/30 05:34:03;;;;;;;20.08;15.13;;;13.90;64.90;;;;;;4978573;28;20020;-82
2023/04/30 05:36:29;;;;;;;19.83;13.57;;;14.10;64.80;;;;;;4973102;28;20086;-83
2023/04/30 05:38:55;;;;;;;18.33;14.25;;;14.20;64.10;;;;;;4951983;29;20023;-85
2023/04/30 05:41:21;;;;;;;18.42;14.48;;;14.20;64.70;;;;;;4969893;28;20035;-84
2023/04/30 05:43:47;;;;;;;20.52;14.52;;;14.60;63.80;;;;;;4977089;28;20622;-84
2023/04/30 05:46:13;;;;;;;17.05;15.20;;;14.80;62.90;;;;;;4970179;28;20035;-82
2023/04/30 05:48:39;;;;;;;18.10;15.68;;;15.20;62.60;;;;;;4981475;28;20046;-81
2023/04/30 05:51:05;;;;;;;16.15;13.93;;;15.60;61.50;;;;;;4966452;28;20034;-83
2023/04/30 05:53:31;;;;;;;21.05;14.40;;;15.90;60.60;;;;;;4977089;28;20042;-82
2023/04/30 05:55:57;;;;;;;17.30;14.43;;;16.30;59.90;;;;;;4961830;28;20038;-82
2023/04/30 05:58:24;;;;;;;13.63;11.43;;;16.50;59.00;;;;;;4977845;28;20388;-81
2023/04/30 06:00:50;;;;;;;15.70;12.67;;;16.40;57.50;;;;;;4974594;28;20019;-84
2023/04/30 06:03:18;;;;;;;16.63;14.75;;;15.90;58.10;;;;;;4958629;28;20039;-82
2023/04/30 06:05:44;;;;;;;16.60;13.60;;;15.60;58.80;;;;;;4976267;28;20134;-83
2023/04/30 06:08:10;;;;;;;17.55;12.80;;;15.80;59.50;;;;;;4980639;28;20023;-83
2023/04/30 06:10:36;;;;;;;15.18;10.40;;;16.30;58.80;;;;;;4958169;28;20589;-84
2023/04/30 06:13:02;;;;;;;9.95;7.85;;;16.60;56.10;;;;;;4975365;28;20031;-83
2023/04/30 06:15:28;;;;;;;10.52;7.70;;;16.30;55.80;;;;;;4963970;28;20034;-83
2023/04/30 06:17:54;;;;;;;8.73;7.43;;;16.40;55.60;;;;;;4970802;28;20031;-84
2023/04/30 06:20:20;;;;;;;8.70;7.43;;;16.60;55.20;;;;;;4950181;28;20253;-83
2023/04/30 06:22:46;;;;;;;10.70;7.55;;;16.90;54.50;;;;;;4973696;28;20476;-84
2023/04/30 06:25:12;;;;;;;8.02;7.22;;;17.30;54.60;;;;;;4960146;28;20015;-82
2023/04/30 06:27:38;;;;;;;10.02;7.50;;;17.30;52.40;;;;;;4956478;28;20113;-82
2023/04/30 06:30:04;;;;;;;11.80;7.20;;;16.70;53.60;;;;;;4972590;28;20451;-85
2023/04/30 06:32:30;;;;;;;16.08;8.00;;;16.80;54.10;;;;;;4975155;28;20097;-87
2023/04/30 06:34:56;;;;;;;9.48;7.65;;;17.30;53.30;;;;;;4972181;28;20035;-84
2023/04/30 06:37:22;;;;;;;12.32;6.78;;;17.70;52.30;;;;;;4973371;28;20069;-85
2023/04/30 06:39:49;;;;;;;10.15;7.05;;;18.10;51.30;;;;;;4972677;28;20027;-85
2023/04/30 06:42:14;;;;;;;9.50;7.22;;;18.40;50.00;;;;;;4978744;28;20015;-84
2023/04/30 06:44:40;;;;;;;11.35;7.10;;;18.50;49.80;;;;;;4973468;28;20053;-85
2023/04/30 06:47:06;;;;;;;10.10;6.53;;;18.40;49.50;;;;;;4974838;28;20384;-84
2023/04/30 06:49:32;;;;;;;9.23;6.22;;;18.10;48.70;;;;;;4957037;28;20546;-83
2023/04/30 06:51:58;;;;;;;10.93;6.30;;;17.40;48.90;;;;;;4958709;28;20035;-85
2023/04/30 06:54:26;;;;;;;7.28;6.25;;;16.90;49.80;;;;;;4959090;28;20026;-84
2023/04/30 06:56:52;;;;;;;9.85;6.45;;;16.70;50.40;;;;;;4974965;28;20029;-86
2023/04/30 06:59:18;;;;;;;10.85;6.13;;;16.80;50.90;;;;;;4980232;28;20373;-86
2023/04/30 07:01:44;;;;;;;10.77;5.70;;;17.10;50.10;;;;;;4974185;28;20023;-84
2023/04/30 07:04:11;;;;;;;11.20;5.80;;;17.20;49.10;;;;;;4973279;28;20033;-84
2023/04/30 07:06:37;;;;;;;11.45;6.65;;;17.40;49.50;;;;;;4973742;28;20055;-85
2023/04/30 07:09:04;;;;;;;8.50;5.53;;;17.90;49.50;;;;;;4975342;28;20055;-84
2023/04/30 07:11:30;;;;;;;9.18;6.15;;;18.50;47.50;;;;;;4991907;28;20090;-83
2023/04/30 07:13:56;;;;;;;5.95;4.40;;;18.60;47.30;;;;;;4977516;28;20023;-83
2023/04/30 07:16:26;;;;;;;10.80;4.57;;;18.10;46.80;;;;;;4987992;28;20019;-84
2023/04/30 07:18:52;;;;;;;6.60;4.50;;;17.70;46.60;;;;;;5001265;28;20015;-84
2023/04/30 07:21:18;;;;;;;6.63;4.10;;;17.10;46.50;;;;;;4991767;28;20109;-83
2023/04/30 07:23:44;;;;;;;6.07;3.70;;;17.00;46.10;;;;;;4990818;28;20030;-84
2023/04/30 07:26:10;;;;;;;8.02;4.68;;;16.80;46.90;;;;;;4983633;28;20034;-84
2023/04/30 07:28:36;;;;;;;5.53;4.38;;;16.40;48.00;;;;;;4973553;28;20540;-86
2023/04/30 07:31:02;;;;;;;12.00;3.85;;;16.50;48.10;;;;;;4940904;29;20056;-85
2023/04/30 07:33:28;;;;;;;4.75;3.75;;;16.40;48.30;;;;;;4919405;29;20541;-85
2023/04/30 07:35:55;;;;;;;9.60;3.55;;;16.30;48.00;;;;;;4937116;29;20044;-84
2023/04/30 07:38:21;;;;;;;6.93;3.20;;;16.10;48.40;;;;;;4926301;29;20023;-85
2023/04/30 07:40:47;;;;;;;7.05;3.08;;;15.90;48.90;;;;;;4919102;29;20036;-82
2023/04/30 07:43:13;;;;;;;7.07;4.53;;;15.70;49.00;;;;;;4931887;29;20027;-81
2023/04/30 07:45:38;;;;;;;9.88;4.10;;;15.70;49.80;;;;;;4922532;29;20104;-83
2023/04/30 07:48:05;;;;;;;10.18;3.65;;;15.90;49.70;;;;;;4915065;29;20486;-84
2023/04/30 07:50:32;;;;;;;5.25;2.42;;;16.10;48.70;;;;;;4919621;29;20048;-82
2023/04/30 07:52:59;;;;;;;7.57;3.08;;;15.70;46.20;;;;;;4912971;29;20035;-84
2023/04/30 07:55:25;;;;;;;5.75;2.72;;;15.20;47.70;;;;;;4913528;29;20454;-83
2023/04/30 07:57:51;;;;;;;7.05;2.30;;;14.90;47.30;;;;;;4895779;29;20025;-85
2023/04/30 08:00:17;;;;;;;4.28;2.00;;;14.50;47.60;;;;;;4912790;29;20551;-85
2023/04/30 08:02:44;;;;;;;4.97;2.17;;;14.30;48.00;;;;;;4963565;28;20038;-85
2023/04/30 08:05:11;;;;;;;5.93;2.60;;;14.20;49.20;;;;;;4952783;28;20098;-88
2023/04/30 08:07:38;;;;;;;2.55;1.98;;;14.20;49.40;;;;;;4963646;28;20063;-88
2023/04/30 08:10:04;;;;;;;4.60;2.58;;;14.00;49.70;;;;;;4958253;28;20117;-86
2023/04/30 08:12:30;;;;;;;3.45;2.35;;;13.90;49.80;;;;;;4980044;28;20023;-87
2023/04/30 08:15:04;;;;;;;3.72;1.98;;;13.80;49.50;;;;;;4946366;28;20053;-86
2023/04/30 08:17:33;;;;;;;6.38;2.80;;;13.60;50.40;;;;;;4975595;28;20027;-85
2023/04/30 08:20:00;;;;;;;5.10;2.53;;;13.40;51.30;;;;;;4961979;28;20023;-83
2023/04/30 08:22:26;;;;;;;3.97;2.25;;;13.30;52.40;;;;;;4971153;28;20023;-83
2023/04/30 08:24:53;;;;;;;8.02;2.67;;;13.20;52.70;;;;;;4975182;28;20392;-86
2023/04/30 08:27:19;;;;;;;;;;;13.30;53.20;;;;;;4976858;28;20034;-84
2023/04/30 08:29:45;;;;;;;10.75;2.78;;;13.40;53.00;;;;;;4974146;28;20364;-86
2023/04/30 08:32:11;;;;;;;4.32;2.58;;;13.40;53.40;;;;;;4976326;28;20023;-87
2023/04/30 08:34:39;;;;;;;5.13;3.22;;;13.60;53.30;;;;;;4977913;28;20033;-85
2023/04/30 08:37:05;;;;;;;6.50;3.60;;;13.70;53.40;;;;;;4961590;28;20019;-85
2023/04/30 08:39:32;;;;;;;5.60;3.17;;;13.70;53.50;;;;;;4962716;28;20447;-83
2023/04/30 08:42:03;;;;;;;5.30;3.00;;;13.80;53.60;;;;;;4982995;28;20027;-85
2023/04/30 08:44:30;;;;;;;5.05;2.80;;;13.90;53.00;;;;;;4975844;28;20066;-83
2023/04/30 08:46:59;;;;;;;4.85;2.97;;;13.80;52.80;;;;;;4978296;28;20015;-87
2023/04/30 08:49:27;;;;;;;5.00;2.80;;;13.50;53.20;;;;;;4984217;28;20026;-85
2023/04/30 08:51:52;;;;;;;5.20;2.15;;;13.30;53.90;;;;;;4986090;28;20036;-85
2023/04/30 08:54:19;;;;;;;4.00;2.10;;;13.30;54.20;;;;;;4981437;28;20047;-84
2023/04/30 08:56:45;;;;;;;4.90;2.72;;;13.30;53.70;;;;;;4955745;28;20026;-86
2023/04/30 08:59:12;;;;;;;3.40;3.10;;;13.20;54.00;;;;;;5000231;28;20026;-85
2023/04/30 09:01:38;;;;;;;9.10;3.00;;;13.10;54.80;;;;;;4991958;28;20164;-84
2023/04/30 09:04:05;;;;;;;4.60;2.17;;;13.20;55.10;;;;;;4956229;28;20023;-84
2023/04/30 09:06:31;;;;;;;2.90;2.13;;;13.10;54.60;;;;;;4977330;28;20059;-87
2023/04/30 09:09:06;;;;;;;10.10;2.58;;;12.90;55.30;;;;;;4966146;28;20136;-83
2023/04/30 09:11:32;;;;;;;6.65;2.63;;;12.80;56.20;;;;;;4991344;28;20051;-86
2023/04/30 09:14:00;;;;;;;4.15;3.00;;;12.70;56.10;;;;;;4977278;28;20026;-88
2023/04/30 09:16:29;;;;;;;4.25;2.35;;;12.70;56.60;;;;;;4976993;28;20027;-87
2023/04/30 09:18:55;;;;;;;2.70;1.92;;;12.80;57.40;;;;;;4962723;28;20019;-87
2023/04/30 09:21:41;;;;;;;4.15;2.63;;;12.90;57.20;;;;;;4981089;28;20050;-85
2023/04/30 09:24:07;;;;;;;4.20;2.53;;;12.90;56.50;;;;;;4984306;28;20039;-85
2023/04/30 09:26:36;;;;;;;5.00;3.38;;;12.90;56.80;;;;;;4965447;28;20115;-86
2023/04/30 09:29:06;;;;;;;4.00;2.25;;;13.00;56.60;;;;;;4978698;28;20077;-85
2023/04/30 09:31:34;;;;;;;4.45;2.50;;;13.00;56.20;;;;;;4976761;28;20109;-86
2023/04/30 09:34:00;;;;;;;4.25;2.55;;;13.00;55.70;;;;;;4985731;28;20106;-84
2023/04/30 09:36:26;;;;;;;6.07;2.42;;;13.10;55.60;;;;;;4985678;28;20688;-86
2023/04/30 09:38:52;;;;;;;2.05;1.67;;;13.20;55.00;;;;;;4960167;28;20069;-83
2023/04/30 09:41:26;;;;;;;7.45;2.42;;;13.30;54.00;;;;;;4977913;28;20019;-85
2023/04/30 09:43:53;;;;;;;3.03;1.75;;;13.20;54.40;;;;;;4964436;28;20468;-85
2023/04/30 09:46:20;;;;;;;2.05;1.38;;;13.20;54.10;;;;;;4978693;28;20026;-85
2023/04/30 09:48:48;;;;;;;2.55;1.60;;;13.10;54.10;;;;;;4958970;28;20031;-85
2023/04/30 09:51:14;;;;;;;;;;;12.90;54.70;;;;;;4971498;28;20038;-87
2023/04/30 09:53:43;;;;;;;4.25;1.40;;;12.90;55.10;;;;;;4992688;28;20355;-88
2023/04/30 09:56:12;;;;;;;6.35;2.25;;;13.00;55.10;;;;;;4977467;28;20026;-86
2023/04/30 09:58:41;;;;;;;4.40;1.92;;;13.10;55.10;;;;;;4983024;28;20027;-85
2023/04/30 10:01:10;;;;;;;4.85;2.17;;;13.20;55.00;;;;;;4978310;28;20057;-84
2023/04/30 10:03:40;;;;;;;5.38;2.40;;;13.30;54.70;;;;;;4963071;28;20468;-84
2023/04/30 10:06:07;;;;;;;6.45;2.88;;;13.20;54.80;;;;;;4963338;28;20074;-78
2023/04/30 10:08:40;;;;;;;6.32;2.28;;;13.10;55.40;;;;;;4968242;28;20082;-77
2023/04/30 10:11:08;;;;;;;2.97;1.73;;;13.10;55.50;;;;;;4973924;28;20136;-81
2023/04/30 10:13:45;;;;;;;2.72;1.73;;;13.00;55.20;;;;;;4973431;28;20022;-79
2023/04/30 10:16:20;;;;;;;4.15;1.98;;;13.10;55.60;;;;;;4973207;28;20507;-78
2023/04/30 10:18:50;;;;;;;5.50;1.90;;;13.10;55.30;;;;;;4970032;28;20773;-80
2023/04/30 10:21:20;;;;;;;3.13;2.40;;;13.10;55.70;;;;;;4970711;28;20031;-80
2023/04/30 10:23:47;;;;;;;5.10;2.40;;;13.20;55.50;;;;;;4971334;28;20504;-78
2023/04/30 10:26:15;;;;;;;4.35;2.33;;;13.20;55.60;;;;;;4972969;28;20412;-80
2023/04/30 10:28:42;;;;;;;4.80;2.10;;;13.10;55.10;;;;;;4971556;28;20533;-80
2023/04/30 10:31:11;;;;;;;5.38;2.08;;;13.00;55.40;;;;;;4985585;28;20100;-78
2023/04/30 10:33:37;;;;;;;2.50;1.60;;;13.00;54.90;;;;;;4973153;28;20376;-78
2023/04/30 10:36:07;;;;;;;6.95;1.63;;;12.90;54.60;;;;;;4984528;28;20022;-80
2023/04/30 10:38:35;;;;;;;2.42;1.55;;;12.80;54.10;;;;;;4986815;28;20053;-79
2023/04/30 10:41:01;;;;;;;2.28;1.52;;;12.80;54.60;;;;;;4971671;28;20369;-79
2023/04/30 10:43:30;;;;;;;3.13;1.80;;;12.80;54.60;;;;;;4973165;28;20480;-78
2023/04/30 10:45:59;;;;;;;2.72;1.10;;;12.90;54.40;;;;;;4976806;28;20023;-79
2023/04/30 10:48:25;;;;;;;6.20;2.38;;;13.00;54.20;;;;;;4975596;28;20089;-79
2023/04/30 10:50:58;;;;;;;3.90;2.38;;;13.10;54.20;;;;;;4970750;28;20047;-77
2023/04/30 10:53:26;;;;;;;6.57;2.00;;;13.30;54.40;;;;;;4972731;28;20511;-80
2023/04/30 10:56:07;;;;;;;2.22;1.50;;;13.30;53.90;;;;;;4968358;28;20038;-81
2023/04/30 10:58:38;;;;;;;4.57;1.60;;;13.40;53.40;;;;;;4971039;28;20019;-78
2023/04/30 11:01:13;;;;;;;3.25;2.00;;;13.40;53.70;;;;;;4976291;28;20022;-80
2023/04/30 11:03:41;;;;;;;3.28;1.88;;;13.40;53.80;;;;;;4977242;28;20023;-78
2023/04/30 11:06:14;;;;;;;10.07;5.00;;;13.50;53.60;;;;;;4985446;28;20431;-80
2023/04/30 11:08:44;;;;;;;2.30;1.88;;;13.50;54.10;;;;;;4990718;28;20019;-80
2023/04/30 11:11:13;;;;;;;3.88;1.73;;;13.60;53.20;;;;;;4979130;28;20050;-80
2023/04/30 11:13:46;;;;;;;5.03;2.10;;;13.60;53.80;;;;;;4978589;28;20092;-80
2023/04/30 11:16:15;;;;;;;4.97;2.00;;;13.60;53.70;;;;;;4956010;28;20122;-80
2023/04/30 11:18:45;;;;;;;5.72;1.85;;;13.40;53.80;;;;;;4949896;28;20476;-78
2023/04/30 11:21:11;;;;;;;3.42;2.13;;;13.40;54.40;;;;;;4957849;28;20030;-79
2023/04/30 11:23:42;;;;;;;5.63;2.35;;;13.50;54.50;;;;;;4966196;28;20077;-80
2023/04/30 11:26:11;;;;;;;3.58;1.92;;;13.50;54.50;;;;;;4970525;28;20384;-79
2023/04/30 11:28:37;;;;;;;6.70;2.58;;;13.60;54.10;;;;;;4970552;28;20027;-79
2023/04/30 11:31:03;;;;;;;4.97;2.47;;;13.60;54.00;;;;;;4971236;28;20041;-81
2023/04/30 11:33:31;;;;;;;8.95;2.40;;;13.70;54.10;;;;;;4967311;28;20059;-82
2023/04/30 11:35:59;;;;;;;4.43;2.83;;;13.80;54.20;;;;;;4971385;28;20054;-82
2023/04/30 11:38:26;;;;;;;;;;;13.90;53.90;;;;;;4973556;28;20515;-81
2023/04/30 11:40:53;;;;;;;2.83;1.80;;;14.10;54.00;;;;;;4986933;28;19953;-81
2023/04/30 11:43:30;;;;;;;;;;;14.00;53.10;;;;;;4988653;28;20031;-84
2023/04/30 11:46:12;;;;;;;8.57;2.75;;;13.90;53.70;;;;;;4977344;28;19917;-84
2023/04/30 11:48:43;;;;;;;4.72;2.22;;;14.00;53.70;;;;;;4976710;28;20428;-83
2023/04/30 11:51:18;;;;;;;2.47;1.75;;;14.00;54.40;;;;;;4976831;28;20373;-84
2023/04/30 11:53:46;;;;;;;4.10;2.30;;;13.90;54.00;;;;;;4976548;28;20038;-87
2023/04/30 11:56:12;;;;;;;7.68;2.42;;;13.80;54.60;;;;;;4960401;29;20023;-84
2023/04/30 11:58:39;;;;;;;5.13;1.85;;;13.70;54.80;;;;;;4979343;28;20027;-84
2023/04/30 12:01:08;;;;;;;6.03;2.00;;;13.60;54.20;;;;;;4980395;28;20109;-84
2023/04/30 12:03:41;;;;;;;7.82;2.50;;;13.50;54.70;;;;;;4976640;28;20023;-82
2023/04/30 12:06:20;;;;;;;11.75;2.35;;;13.50;55.30;;;;;;4957615;28;20062;-82
2023/04/30 12:08:46;;;;;;;6.20;2.15;;;13.50;55.00;;;;;;4970660;28;20035;-82
2023/04/30 12:11:26;;;;;;;5.68;2.40;;;13.60;55.70;;;;;;4973514;28;20041;-83
2023/04/30 12:14:10;;;;;;;4.43;2.28;;;13.70;54.80;;;;;;4939697;28;20078;-81
2023/04/30 12:16:44;;;;;;;7.90;2.72;;;13.60;54.20;;;;;;4966313;28;20180;-86
2023/04/30 12:19:11;;;;;;;5.70;2.75;;;13.50;54.30;;;;;;4977916;28;20010;-90
2023/04/30 12:21:40;;;;;;;3.22;2.20;;;13.50;54.40;;;;;;4971330;28;20034;-91
2023/04/30 12:24:07;;;;;;;4.38;1.98;;;13.50;54.60;;;;;;4979561;28;20034;-82
2023/04/30 12:26:38;;;;;;;3.80;1.90;;;13.50;54.60;;;;;;4970269;28;20054;-86
2023/04/30 12:29:15;;;;;;;5.10;2.45;;;13.40;54.40;;;;;;4951040;28;20027;-85
2023/04/30 12:31:42;;;;;;;4.55;2.80;;;13.40;54.90;;;;;;4959500;28;20050;-82
2023/04/30 12:34:10;;;;;;;4.85;2.85;;;13.30;54.90;;;;;;4957347;28;20042;-82
2023/04/30 12:36:41;;;;;;;6.25;2.35;;;13.30;55.70;;;;;;4971111;28;20555;-80
2023/04/30 12:39:09;;;;;;;7.53;3.10;;;13.30;55.20;;;;;;4958038;28;20028;-82
2023/04/30 12:41:46;;;;;;;5.10;2.33;;;13.30;55.60;;;;;;4943008;28;20031;-79
2023/04/30 12:44:20;;;;;;;4.53;2.53;;;13.20;55.20;;;;;;4958100;28;20019;-81